createdAt,value
2023-02-20T00:02:00.512Z,22.28
2023-02-20T00:05:03.601Z,22.26
2023-02-20T00:08:08.123Z,22.27
2023-02-20T00:11:11.268Z,22.27
2023-02-20T00:14:14.716Z,22.26
2023-02-20T00:17:17.697Z,22.26
2023-02-20T00:20:23.027Z,22.27
2023-02-20T00:23:27.478Z,22.26
2023-02-20T00:26:30.612Z,22.27
2023-02-20T00:29:34.637Z,22.26
2023-02-20T00:32:37.742Z,22.25
2023-02-20T00:35:40.714Z,22.26
2023-02-20T00:38:45.413Z,22.24
2023-02-20T00:41:48.933Z,22.17
2023-02-20T00:44:52.213Z,22.24
2023-02-20T00:47:55.304Z,22.24
2023-02-20T00:50:58.301Z,22.25
2023-02-20T00:54:03.129Z,22.24
2023-02-20T00:57:06.124Z,21.99
2023-02-20T01:00:13.763Z,22.24
2023-02-20T01:03:16.842Z,22.24
2023-02-20T01:06:19.952Z,22.24
2023-02-20T01:09:24.422Z,22.23
2023-02-20T01:12:27.404Z,22.17
2023-02-20T01:15:30.371Z,22.24
2023-02-20T01:18:33.737Z,22.24
2023-02-20T01:21:36.748Z,22.23
2023-02-20T01:24:42.078Z,22.22
2023-02-20T01:27:45.085Z,22.20
2023-02-20T01:30:48.099Z,22.23
2023-02-20T01:33:51.095Z,22.14
2023-02-20T01:36:56.318Z,22.23
2023-02-20T01:40:00.951Z,22.18
2023-02-20T01:43:05.058Z,22.22
2023-02-20T01:46:45.286Z,22.23
2023-02-20T01:49:52.410Z,21.97
2023-02-20T01:52:59.934Z,22.21
2023-02-20T01:56:09.435Z,22.14
2023-02-20T01:59:13.514Z,22.21
2023-02-20T02:02:17.067Z,22.20
2023-02-20T02:05:20.603Z,22.21
2023-02-20T02:08:25.058Z,22.21
2023-02-20T02:11:30.070Z,22.21
2023-02-20T02:14:33.331Z,22.21
2023-02-20T02:18:00.530Z,22.20
2023-02-20T02:21:52.004Z,22.21
2023-02-20T02:25:33.032Z,22.20
2023-02-20T02:29:03.949Z,22.20
2023-02-20T02:32:23.293Z,22.20
2023-02-20T02:35:46.206Z,22.21
2023-02-20T02:38:57.669Z,22.19
2023-02-20T02:42:10.696Z,22.21
2023-02-20T02:45:20.719Z,22.21
2023-02-20T02:48:29.378Z,22.18
2023-02-20T02:51:38.293Z,22.19
2023-02-20T02:54:42.671Z,22.20
2023-02-20T02:57:45.986Z,22.17
2023-02-20T03:00:54.331Z,22.16
2023-02-20T03:03:58.746Z,22.18
2023-02-20T03:07:08.820Z,22.19
2023-02-20T03:10:20.711Z,22.18
2023-02-20T03:13:42.433Z,22.15
2023-02-20T03:16:55.898Z,22.16
2023-02-20T03:20:01.070Z,22.13
2023-02-20T03:23:06.971Z,22.19
2023-02-20T03:26:18.821Z,22.17
2023-02-20T03:29:28.874Z,22.09
2023-02-20T03:32:50.371Z,22.17
2023-02-20T03:36:14.503Z,22.09
2023-02-20T03:39:38.812Z,22.07
2023-02-20T03:43:04.892Z,22.13
2023-02-20T03:46:11.957Z,22.15
2023-02-20T03:49:19.003Z,22.15
2023-02-20T03:52:22.509Z,22.13
2023-02-20T03:55:25.916Z,22.13
2023-02-20T03:58:35.180Z,22.12
2023-02-20T04:01:40.623Z,21.98
2023-02-20T04:04:51.581Z,22.08
2023-02-20T04:07:57.754Z,22.07
2023-02-20T04:11:04.476Z,22.05
2023-02-20T04:14:11.091Z,22.08
2023-02-20T04:17:18.492Z,22.13
2023-02-20T04:20:21.535Z,22.15
2023-02-20T04:23:26.493Z,22.18
2023-02-20T04:26:29.632Z,22.20
2023-02-20T04:29:34.195Z,22.18
2023-02-20T04:32:37.367Z,22.20
2023-02-20T04:35:40.574Z,22.20
2023-02-20T04:38:43.538Z,22.20
2023-02-20T04:41:46.560Z,22.14
2023-02-20T04:44:50.908Z,22.18
2023-02-20T04:47:53.922Z,22.17
2023-02-20T04:50:56.952Z,22.19
2023-02-20T04:53:59.912Z,22.14
2023-02-20T04:57:02.958Z,21.75
2023-02-20T05:00:08.968Z,21.74
2023-02-20T05:03:11.996Z,21.76
2023-02-20T05:06:15.049Z,21.53
2023-02-20T05:09:18.488Z,21.65
2023-02-20T05:12:21.535Z,21.68
2023-02-20T05:15:27.030Z,21.84
2023-02-20T05:18:31.326Z,21.94
2023-02-20T05:21:51.801Z,22.18
2023-02-20T05:24:54.901Z,22.39
2023-02-20T05:27:57.886Z,22.58
2023-02-20T05:31:02.268Z,22.45
2023-02-20T05:34:05.365Z,22.73
2023-02-20T05:37:08.349Z,22.70
2023-02-20T05:40:12.004Z,22.80
2023-02-20T05:43:15.065Z,22.80
2023-02-20T05:46:19.512Z,22.81
2023-02-20T05:49:22.779Z,22.80
2023-02-20T05:52:25.740Z,22.79
2023-02-20T05:55:28.753Z,22.80
2023-02-20T05:58:31.775Z,22.82
2023-02-20T06:01:36.197Z,22.83
2023-02-20T06:04:39.289Z,22.85
2023-02-20T06:07:44.484Z,22.82
2023-02-20T06:10:47.443Z,22.78
2023-02-20T06:13:50.420Z,22.82
2023-02-20T06:16:55.328Z,22.77
2023-02-20T06:19:58.425Z,22.76
2023-02-20T06:23:01.607Z,22.64
2023-02-20T06:26:04.830Z,22.53
2023-02-20T06:29:07.897Z,22.63
2023-02-20T06:32:12.317Z,22.74
2023-02-20T06:35:15.826Z,22.76
2023-02-20T06:38:18.860Z,22.79
2023-02-20T06:41:21.884Z,22.77
2023-02-20T06:44:24.897Z,22.91
2023-02-20T06:47:29.267Z,22.86
2023-02-20T06:50:32.223Z,22.92
2023-02-20T06:53:38.738Z,22.89
2023-02-20T06:56:41.878Z,22.82
2023-02-20T06:59:47.899Z,22.76
2023-02-20T07:02:52.463Z,22.74
2023-02-20T07:05:55.480Z,22.69
2023-02-20T07:08:58.466Z,22.77
2023-02-20T07:12:01.798Z,22.81
2023-02-20T07:15:06.609Z,22.84
2023-02-20T07:18:11.014Z,22.92
2023-02-20T07:21:14.088Z,22.92
2023-02-20T07:24:18.721Z,23.00
2023-02-20T07:27:23.221Z,23.06
2023-02-20T07:30:28.294Z,23.08
2023-02-20T07:33:36.436Z,23.08
2023-02-20T07:36:39.628Z,23.09
2023-02-20T07:39:42.796Z,22.98
2023-02-20T07:42:45.860Z,23.02
2023-02-20T07:45:49.052Z,23.00
2023-02-20T07:48:54.690Z,23.01
2023-02-20T07:51:57.729Z,23.03
2023-02-20T07:55:00.765Z,22.97
2023-02-20T07:58:03.774Z,23.06
2023-02-20T08:01:06.965Z,23.09
2023-02-20T08:04:11.429Z,23.08
2023-02-20T08:07:14.528Z,23.10
2023-02-20T08:10:19.676Z,23.14
2023-02-20T08:13:22.649Z,23.18
2023-02-20T08:16:27.020Z,23.22
2023-02-20T08:19:31.508Z,23.24
2023-02-20T08:22:41.353Z,23.27
2023-02-20T08:25:45.278Z,23.28
2023-02-20T08:28:48.794Z,23.24
2023-02-20T08:31:51.872Z,23.32
2023-02-20T08:34:56.339Z,23.33
2023-02-20T08:37:59.454Z,23.33
2023-02-20T08:41:04.875Z,23.35
2023-02-20T08:44:07.920Z,23.36
2023-02-20T08:47:11.198Z,23.18
2023-02-20T08:50:15.757Z,23.35
2023-02-20T08:53:19.111Z,23.36
2023-02-20T08:56:22.928Z,23.34
2023-02-20T08:59:25.884Z,23.32
2023-02-20T09:02:30.452Z,23.30
2023-02-20T09:05:36.137Z,23.27
2023-02-20T09:08:39.975Z,23.25
2023-02-20T09:11:43.211Z,23.24
2023-02-20T09:14:46.586Z,23.22
2023-02-20T09:17:50.760Z,23.19
2023-02-20T09:20:55.371Z,23.14
2023-02-20T09:23:58.437Z,23.16
2023-02-20T09:27:02.000Z,23.12
2023-02-20T09:30:05.709Z,23.13
2023-02-20T09:33:09.717Z,23.15
2023-02-20T09:36:14.490Z,23.13
2023-02-20T09:39:18.086Z,23.14
2023-02-20T09:42:31.647Z,23.02
2023-02-20T09:45:38.263Z,23.13
2023-02-20T09:49:02.466Z,23.16
2023-02-20T09:52:13.376Z,23.19
2023-02-20T09:55:22.187Z,23.17
2023-02-20T09:58:37.839Z,23.16
2023-02-20T10:01:47.300Z,23.17
2023-02-20T10:05:01.242Z,23.18
2023-02-20T10:08:10.512Z,23.18
2023-02-20T10:11:22.589Z,23.18
2023-02-20T10:14:57.857Z,23.19
2023-02-20T10:18:11.972Z,23.19
2023-02-20T10:21:25.457Z,23.10
2023-02-20T10:24:47.897Z,23.21
2023-02-20T10:27:56.097Z,23.21
2023-02-20T10:31:05.094Z,23.19
2023-02-20T10:34:14.633Z,23.22
2023-02-20T10:37:22.460Z,23.20
2023-02-20T10:40:32.872Z,23.15
2023-02-20T10:43:42.676Z,23.15
2023-02-20T10:46:53.612Z,23.13
2023-02-20T10:50:02.170Z,23.10
2023-02-20T10:53:17.838Z,23.08
2023-02-20T10:56:28.980Z,23.06
2023-02-20T10:59:39.548Z,23.03
2023-02-20T11:02:47.001Z,23.01
2023-02-20T11:05:54.700Z,22.99
2023-02-20T11:08:57.882Z,22.96
2023-02-20T11:12:03.031Z,22.95
2023-02-20T11:15:08.643Z,22.93
2023-02-20T11:18:22.261Z,22.93
2023-02-20T11:21:42.895Z,22.85
2023-02-20T11:24:46.742Z,22.93
2023-02-20T11:27:54.610Z,22.85
2023-02-20T11:31:03.174Z,22.90
2023-02-20T11:34:07.888Z,22.89
2023-02-20T11:37:15.842Z,22.89
2023-02-20T11:40:25.406Z,22.88
2023-02-20T11:43:33.406Z,22.87
2023-02-20T11:46:36.597Z,22.82
2023-02-20T11:49:39.870Z,22.80
2023-02-20T11:52:59.512Z,22.85
2023-02-20T11:56:10.655Z,22.85
2023-02-20T11:59:30.075Z,22.84
2023-02-20T12:02:33.074Z,22.82
2023-02-20T12:05:40.468Z,22.82
2023-02-20T12:08:56.819Z,22.81
2023-02-20T12:11:59.767Z,22.80
2023-02-20T12:15:04.342Z,22.78
2023-02-20T12:18:41.816Z,22.77
2023-02-20T12:21:56.283Z,22.76
2023-02-20T12:25:13.719Z,22.74
2023-02-20T12:28:26.379Z,22.73
2023-02-20T12:31:46.056Z,22.73
2023-02-20T12:35:04.268Z,22.73
2023-02-20T12:38:30.817Z,22.72
2023-02-20T12:41:49.104Z,22.71
2023-02-20T12:45:16.515Z,22.72
2023-02-20T12:48:34.446Z,22.69
2023-02-20T12:51:46.956Z,22.56
2023-02-20T12:54:58.463Z,22.63
2023-02-20T12:58:12.521Z,22.67
2023-02-20T13:01:22.803Z,22.66
2023-02-20T13:04:41.357Z,22.63
2023-02-20T13:07:52.235Z,22.65
2023-02-20T13:10:58.636Z,22.64
2023-02-20T13:14:10.452Z,22.63
2023-02-20T13:17:26.495Z,22.64
2023-02-20T13:20:35.457Z,22.64
2023-02-20T13:23:41.925Z,22.63
2023-02-20T13:26:49.231Z,22.62
2023-02-20T13:30:04.031Z,22.64
2023-02-20T13:33:14.454Z,22.63
2023-02-20T13:36:42.782Z,22.64
2023-02-20T13:39:45.914Z,22.63
2023-02-20T13:42:48.978Z,22.63
2023-02-20T13:46:12.951Z,22.64
2023-02-20T13:49:58.114Z,22.64
2023-02-20T13:53:04.272Z,22.63
2023-02-20T13:56:16.343Z,22.63
2023-02-20T13:59:21.919Z,22.60
2023-02-20T14:02:30.313Z,22.50
2023-02-20T14:05:33.942Z,22.62
2023-02-20T14:08:41.815Z,22.56
2023-02-20T14:11:45.710Z,22.61
2023-02-20T14:14:48.732Z,22.61
2023-02-20T14:17:53.182Z,22.56
2023-02-20T14:21:00.453Z,22.62
2023-02-20T14:24:19.966Z,22.59
2023-02-20T14:27:27.191Z,22.62
2023-02-20T14:30:31.957Z,22.56
2023-02-20T14:33:35.789Z,22.64
2023-02-20T14:36:52.462Z,22.64
2023-02-20T14:40:04.472Z,22.60
2023-02-20T14:43:16.547Z,22.60
2023-02-20T14:46:24.448Z,22.61
2023-02-20T14:49:29.081Z,22.58
2023-02-20T14:52:32.167Z,22.57
2023-02-20T14:55:36.547Z,22.56
2023-02-20T14:58:39.837Z,22.52
2023-02-20T15:01:43.091Z,22.55
2023-02-20T15:04:50.992Z,22.52
2023-02-20T15:08:01.760Z,22.51
2023-02-20T15:11:11.711Z,22.51
2023-02-20T15:14:20.780Z,22.41
2023-02-20T15:17:26.387Z,22.39
2023-02-20T15:20:38.515Z,22.48
2023-02-20T15:23:42.936Z,22.48
2023-02-20T15:26:47.280Z,22.48
2023-02-20T15:30:09.824Z,22.46
2023-02-20T15:33:12.919Z,22.47
2023-02-20T15:36:18.636Z,22.39
2023-02-20T15:39:22.017Z,22.45
2023-02-20T15:42:26.439Z,22.34
2023-02-20T15:45:30.980Z,22.44
2023-02-20T15:48:33.929Z,22.43
2023-02-20T15:51:40.472Z,22.45
2023-02-20T15:54:44.004Z,22.40
2023-02-20T15:57:50.032Z,22.42
2023-02-20T16:00:55.396Z,22.39
2023-02-20T16:03:58.393Z,22.39
2023-02-20T16:07:01.398Z,22.39
2023-02-20T16:10:04.545Z,22.39
2023-02-20T16:13:22.375Z,22.39
2023-02-20T16:16:32.270Z,22.37
2023-02-20T16:19:42.400Z,22.37
2023-02-20T16:22:46.177Z,22.37
2023-02-20T16:25:51.056Z,22.37
2023-02-20T16:28:59.009Z,22.40
2023-02-20T16:32:17.421Z,22.52
2023-02-20T16:35:20.807Z,22.55
2023-02-20T16:38:25.971Z,22.61
2023-02-20T16:41:30.757Z,22.60
2023-02-20T16:44:37.353Z,22.56
2023-02-20T16:47:40.901Z,22.61
2023-02-20T16:50:43.892Z,22.63
2023-02-20T16:53:46.947Z,22.54
2023-02-20T16:56:49.990Z,22.68
2023-02-20T16:59:56.234Z,22.62
2023-02-20T17:02:59.647Z,22.57
2023-02-20T17:06:02.696Z,22.51
2023-02-20T17:09:05.701Z,22.48
2023-02-20T17:12:09.156Z,22.46
2023-02-20T17:15:17.113Z,22.46
2023-02-20T17:18:20.106Z,22.46
2023-02-20T17:21:23.159Z,22.46
2023-02-20T17:24:26.660Z,22.46
2023-02-20T17:27:29.673Z,22.43
2023-02-20T17:30:34.167Z,22.49
2023-02-20T17:33:37.174Z,22.53
2023-02-20T17:36:48.089Z,22.35
2023-02-20T17:39:51.152Z,22.13
2023-02-20T17:42:54.217Z,21.97
2023-02-20T17:45:58.594Z,22.10
2023-02-20T17:49:01.686Z,22.22
2023-02-20T17:52:05.019Z,22.40
2023-02-20T17:55:08.343Z,22.53
2023-02-20T17:58:11.506Z,22.57
2023-02-20T18:01:16.011Z,22.61
2023-02-20T18:04:21.137Z,22.61
2023-02-20T18:07:24.514Z,22.65
2023-02-20T18:10:27.592Z,22.67
2023-02-20T18:13:30.566Z,22.67
2023-02-20T18:16:35.026Z,22.69
2023-02-20T18:19:38.132Z,22.67
2023-02-20T18:22:41.097Z,22.71
2023-02-20T18:25:44.076Z,22.73
2023-02-20T18:28:47.549Z,22.63
2023-02-20T18:31:53.287Z,22.73
2023-02-20T18:34:56.855Z,22.74
2023-02-20T18:38:01.125Z,22.77
2023-02-20T18:41:04.602Z,22.76
2023-02-20T18:44:09.515Z,22.78
2023-02-20T18:47:14.031Z,22.78
2023-02-20T18:50:17.721Z,22.79
2023-02-20T18:53:20.805Z,22.66
2023-02-20T18:56:24.284Z,22.78
2023-02-20T18:59:28.262Z,22.79
2023-02-20T19:02:32.742Z,22.77
2023-02-20T19:05:35.991Z,22.81
2023-02-20T19:08:39.008Z,22.75
2023-02-20T19:11:42.132Z,22.78
2023-02-20T19:14:45.188Z,22.75
2023-02-20T19:17:50.268Z,22.72
2023-02-20T19:20:53.393Z,22.67
2023-02-20T19:23:56.489Z,22.64
2023-02-20T19:26:59.487Z,22.57
2023-02-20T19:30:02.674Z,22.57
2023-02-20T19:33:07.174Z,22.56
2023-02-20T19:36:11.193Z,22.57
2023-02-20T19:39:14.608Z,22.46
2023-02-20T19:42:18.540Z,22.55
2023-02-20T19:45:21.700Z,22.53
2023-02-20T19:48:28.185Z,22.55
2023-02-20T19:51:31.500Z,22.55
2023-02-20T19:54:34.544Z,22.57
2023-02-20T19:57:37.533Z,22.60
2023-02-20T20:00:40.669Z,22.61
2023-02-20T20:03:46.517Z,22.48
2023-02-20T20:06:49.584Z,22.61
2023-02-20T20:09:52.608Z,22.63
2023-02-20T20:12:55.660Z,22.59
2023-02-20T20:15:58.986Z,22.57
2023-02-20T20:19:03.455Z,22.59
2023-02-20T20:22:06.489Z,22.58
2023-02-20T20:25:11.922Z,22.56
2023-02-20T20:28:15.256Z,22.58
2023-02-20T20:31:20.122Z,22.59
2023-02-20T20:34:25.341Z,22.60
2023-02-20T20:37:29.128Z,22.54
2023-02-20T20:40:32.144Z,22.53
2023-02-20T20:43:35.138Z,22.44
2023-02-20T20:46:38.926Z,22.51
2023-02-20T20:49:43.276Z,22.49
2023-02-20T20:52:46.311Z,22.48
2023-02-20T20:55:49.276Z,22.40
2023-02-20T20:58:52.232Z,22.33
2023-02-20T21:01:55.218Z,22.31
2023-02-20T21:05:09.894Z,22.21
2023-02-20T21:08:14.118Z,22.27
2023-02-20T21:11:17.625Z,22.25
2023-02-20T21:14:20.712Z,22.20
2023-02-20T21:17:23.759Z,22.23
2023-02-20T21:20:30.697Z,22.20
2023-02-20T21:23:33.813Z,22.20
2023-02-20T21:26:38.114Z,22.20
2023-02-20T21:29:41.526Z,22.18
2023-02-20T21:32:44.865Z,22.16
2023-02-20T21:35:49.293Z,22.19
2023-02-20T21:38:52.286Z,22.18
2023-02-20T21:42:12.980Z,22.20
2023-02-20T21:45:16.261Z,22.18
2023-02-20T21:48:19.346Z,22.19
2023-02-20T21:51:23.898Z,22.17
2023-02-20T21:54:29.348Z,22.18
2023-02-20T21:57:32.343Z,22.14
2023-02-20T22:00:34.146Z,22.08
2023-02-20T22:03:36.329Z,22.18
2023-02-20T22:06:40.227Z,22.17
2023-02-20T22:10:00.707Z,22.15
2023-02-20T22:13:21.637Z,22.05
2023-02-20T22:16:42.051Z,22.14
2023-02-20T22:20:03.290Z,22.14
2023-02-20T22:23:25.320Z,22.13
2023-02-20T22:26:45.782Z,22.13
2023-02-20T22:30:06.257Z,22.10
2023-02-20T22:33:26.745Z,22.10
2023-02-20T22:36:47.174Z,22.08
2023-02-20T22:40:09.042Z,22.08
2023-02-20T22:43:29.460Z,22.07
2023-02-20T22:46:50.166Z,22.07
2023-02-20T22:50:10.655Z,21.99
2023-02-20T22:53:31.067Z,22.01
2023-02-20T22:56:53.140Z,22.01
2023-02-20T23:00:13.571Z,22.04
2023-02-20T23:03:33.922Z,22.01
2023-02-20T23:06:54.383Z,22.03
2023-02-20T23:10:14.897Z,22.02
2023-02-20T23:13:37.070Z,22.01
2023-02-20T23:16:57.535Z,22.00
2023-02-20T23:20:17.900Z,22.00
2023-02-20T23:23:38.578Z,21.98
2023-02-20T23:26:58.884Z,21.98
2023-02-20T23:30:20.892Z,21.98
2023-02-20T23:33:41.486Z,21.97
2023-02-20T23:37:05.428Z,21.97
2023-02-20T23:40:35.969Z,21.97
2023-02-20T23:43:56.893Z,21.96
2023-02-20T23:47:18.916Z,21.96
2023-02-20T23:50:39.402Z,21.96
2023-02-20T23:53:59.924Z,21.96
2023-02-20T23:57:20.229Z,21.90
